Time;durP1;ratioP1;P1;durP2;ratioP2;P2;SDS_P1;SDS_P2;PMS_P1;PMS_P2;Temp;Humidity;BMP_temperature;BMP_pressure;BME280_temperature;BME280_humidity;BME280_pressure;Samples;Min_cycle;Max_cycle;Signal;HPM_P1;HPM_P2
2021/07/17 00:01:08;;;;;;;22.00;10.75;;;;;;;21.05;100.00;100398.52;1734653;81;21542;-39
2021/07/17 00:03:37;;;;;;;27.77;11.33;;;;;;;21.06;100.00;100397.58;1712969;83;21365;-39
2021/07/17 00:06:04;;;;;;;33.05;11.30;;;;;;;21.06;100.00;100408.97;1706275;81;21157;-39
2021/07/17 00:08:32;;;;;;;23.57;10.88;;;;;;;21.06;100.00;100400.21;1672071;83;21025;-39
2021/07/17 00:10:58;;;;;;;21.68;10.25;;;;;;;21.06;100.00;100402.39;1707220;83;21007;-40
2021/07/17 00:13:25;;;;;;;17.77;10.18;;;;;;;21.06;100.00;100402.84;1694069;83;21003;-40
2021/07/17 00:15:53;;;;;;;26.52;10.75;;;;;;;21.05;100.00;100398.06;1695721;83;21083;-39
2021/07/17 00:18:20;;;;;;;21.10;10.30;;;;;;;21.03;100.00;100395.15;1680997;84;22336;-39
2021/07/17 00:20:47;;;;;;;26.27;9.98;;;;;;;21.01;100.00;100395.72;1702503;83;21513;-38
2021/07/17 00:23:13;;;;;;;18.77;10.45;;;;;;;20.98;100.00;100388.89;1678132;83;21524;-38
2021/07/17 00:25:43;;;;;;;29.80;10.28;;;;;;;20.96;100.00;100396.00;1653426;85;21015;-39
2021/07/17 00:28:09;;;;;;;25.52;11.63;;;;;;;20.92;100.00;100395.37;1636907;87;21035;-38
2021/07/17 00:30:37;;;;;;;28.10;11.05;;;;;;;20.88;100.00;100395.20;1637504;86;21560;-39
2021/07/17 00:33:04;;;;;;;16.57;9.10;;;;;;;20.87;100.00;100396.59;1647258;85;20996;-39
2021/07/17 00:35:30;;;;;;;24.77;10.15;;;;;;;20.84;100.00;100396.33;1647506;86;21363;-39
2021/07/17 00:37:57;;;;;;;26.35;9.60;;;;;;;20.81;100.00;100395.18;1661852;86;21509;-38
2021/07/17 00:40:23;;;;;;;21.50;10.13;;;;;;;20.78;100.00;100391.41;1641642;86;21203;-39
2021/07/17 00:42:51;;;;;;;32.17;11.40;;;;;;;20.75;100.00;100402.11;1637057;86;21134;-39
2021/07/17 00:45:19;;;;;;;18.07;10.23;;;;;;;20.75;100.00;100394.22;1617207;87;21007;-39
2021/07/17 00:47:46;;;;;;;29.25;10.70;;;;;;;20.80;100.00;100392.18;1656425;86;21542;-39
2021/07/17 00:50:16;;;;;;;17.15;9.95;;;;;;;20.83;100.00;100396.41;1648021;86;20972;-39
2021/07/17 00:52:44;;;;;;;21.10;10.28;;;;;;;20.83;100.00;100403.82;1637035;86;21055;-39
2021/07/17 00:55:11;;;;;;;14.90;11.25;;;;;;;20.82;100.00;100398.19;1625255;86;21174;-39
2021/07/17 00:57:39;;;;;;;23.00;10.45;;;;;;;20.83;100.00;100401.67;1653418;86;21587;-39
2021/07/17 01:00:09;;;;;;;31.25;10.90;;;;;;;20.82;100.00;100399.50;1641712;86;20976;-39
2021/07/17 01:02:42;;;;;;;38.20;13.70;;;;;;;20.81;100.00;100397.81;1641848;86;21107;-38
2021/07/17 01:05:09;;;;;;;29.15;12.18;;;;;;;20.83;100.00;100399.05;1640856;86;21704;-40
2021/07/17 01:07:35;;;;;;;23.45;11.63;;;;;;;20.85;100.00;100394.08;1660735;86;21159;-38
2021/07/17 01:10:05;;;;;;;28.20;11.12;;;;;;;20.87;100.00;100395.28;1652583;86;21032;-39
2021/07/17 01:12:33;;;;;;;20.05;11.10;;;;;;;20.87;100.00;100401.39;1635769;86;20988;-39
2021/07/17 01:15:02;;;;;;;27.22;10.93;;;;;;;20.86;100.00;100399.70;1653832;85;21058;-38
2021/07/17 01:17:29;;;;;;;22.73;10.63;;;;;;;20.85;100.00;100396.70;1699272;83;20999;-38
2021/07/17 01:19:55;;;;;;;21.12;10.63;;;;;;;20.84;100.00;100396.79;1693674;83;21188;-39
2021/07/17 01:22:24;;;;;;;22.37;10.93;;;;;;;20.83;100.00;100401.19;1712792;83;20931;-38
2021/07/17 01:24:50;;;;;;;22.73;10.55;;;;;;;20.84;100.00;100400.28;1679069;83;22286;-39
2021/07/17 01:27:17;;;;;;;27.82;10.70;;;;;;;20.85;100.00;100398.02;1729080;82;21568;-39
2021/07/17 01:29:46;;;;;;;20.68;11.50;;;;;;;20.84;100.00;100397.65;1741586;82;21004;-39
2021/07/17 01:32:15;;;;;;;22.10;12.23;;;;;;;20.80;100.00;100402.24;1709012;82;21529;-39
2021/07/17 01:34:42;;;;;;;23.35;11.28;;;;;;;20.76;100.00;100397.23;1697751;83;20995;-38
2021/07/17 01:37:09;;;;;;;20.40;11.18;;;;;;;20.71;100.00;100392.25;1739005;81;20944;-39
2021/07/17 01:39:36;;;;;;;23.07;11.48;;;;;;;20.67;100.00;100389.44;1708588;82;21123;-38
2021/07/17 01:42:02;;;;;;;19.70;11.88;;;;;;;20.64;100.00;100388.31;1729961;82;20940;-38
2021/07/17 01:44:29;;;;;;;19.77;11.65;;;;;;;20.63;100.00;100388.80;1715648;82;21149;-39
2021/07/17 01:46:56;;;;;;;29.02;12.47;;;;;;;20.65;100.00;100388.69;1721893;82;20940;-39
2021/07/17 01:49:22;;;;;;;28.85;11.65;;;;;;;20.64;100.00;100383.05;1692915;83;21063;-39
2021/07/17 01:51:49;;;;;;;27.95;11.05;;;;;;;20.64;100.00;100383.05;1728854;82;20948;-38
2021/07/17 01:54:15;;;;;;;24.87;11.65;;;;;;;20.66;100.00;100382.03;1683814;83;20964;-39
2021/07/17 01:56:42;;;;;;;20.75;11.05;;;;;;;20.67;100.00;100385.04;1725074;82;21196;-39
2021/07/17 01:59:09;;;;;;;23.87;11.05;;;;;;;20.68;100.00;100390.67;1654982;84;20944;-39
2021/07/17 02:01:36;;;;;;;28.92;12.35;;;;;;;20.68;100.00;100389.81;1698614;82;20960;-38
2021/07/17 02:04:03;;;;;;;24.05;11.45;;;;;;;20.68;100.00;100385.87;1738390;82;22002;-38
2021/07/17 02:06:30;;;;;;;23.07;12.25;;;;;;;20.67;100.00;100386.36;1714404;83;21099;-39
2021/07/17 02:08:57;;;;;;;26.33;11.90;;;;;;;20.67;100.00;100384.17;1678774;83;21165;-39
2021/07/17 02:11:23;;;;;;;38.53;12.30;;;;;;;20.67;100.00;100388.98;1739966;82;21023;-39
2021/07/17 02:13:53;;;;;;;28.32;11.65;;;;;;;20.70;100.00;100384.47;1673914;83;20984;-40
2021/07/17 02:16:21;;;;;;;39.30;11.95;;;;;;;20.71;100.00;100383.53;1728273;82;21706;-39
2021/07/17 02:18:48;;;;;;;31.95;13.28;;;;;;;20.73;100.00;100382.96;1739690;82;21473;-39
2021/07/17 02:21:15;;;;;;;38.40;13.25;;;;;;;20.73;100.00;100386.45;1740448;82;21221;-39
2021/07/17 02:23:42;;;;;;;27.55;12.30;;;;;;;20.74;100.00;100383.34;1713767;81;20969;-39
2021/07/17 02:26:09;;;;;;;31.37;12.00;;;;;;;20.77;100.00;100385.77;1748797;81;21003;-40
2021/07/17 02:28:36;;;;;;;29.77;12.23;;;;;;;20.81;100.00;100385.98;1750714;82;20940;-39
2021/07/17 02:31:04;;;;;;;24.10;11.68;;;;;;;20.85;100.00;100395.39;1740817;81;21076;-38
2021/07/17 02:33:31;;;;;;;33.38;11.90;;;;;;;20.89;100.00;100398.66;1735653;81;21175;-40
2021/07/17 02:35:58;;;;;;;47.30;12.35;;;;;;;20.92;100.00;100393.20;1728464;81;21012;-39
2021/07/17 02:38:26;;;;;;;43.00;13.32;;;;;;;20.95;100.00;100389.91;1747612;81;21015;-40
2021/07/17 02:40:53;;;;;;;22.65;10.60;;;;;;;20.99;100.00;100391.03;1723039;81;20976;-38
2021/07/17 02:43:20;;;;;;;18.30;11.33;;;;;;;21.03;100.00;100389.89;1746939;81;20972;-39
2021/07/17 02:45:47;;;;;;;19.02;9.93;;;;;;;21.07;99.85;100389.61;1723664;81;21312;-39
2021/07/17 02:48:13;;;;;;;33.35;11.65;;;;;;;21.13;99.76;100388.38;1727542;81;21019;-39
2021/07/17 02:50:40;;;;;;;19.75;10.58;;;;;;;21.17;99.40;100393.81;1724182;81;21045;-38
2021/07/17 02:53:06;;;;;;;22.42;11.03;;;;;;;21.19;99.01;100398.50;1720529;82;20979;-39
2021/07/17 02:55:35;;;;;;;20.82;10.43;;;;;;;21.21;98.62;100393.13;1745486;81;21581;-39
2021/07/17 02:58:02;;;;;;;20.62;9.73;;;;;;;21.25;98.27;100394.64;1750288;82;21204;-39
2021/07/17 03:00:33;;;;;;;13.38;10.45;;;;;;;21.27;97.75;100399.33;1684263;83;21077;-39
2021/07/17 03:02:57;;;;;;;21.52;10.68;;;;;;;21.30;97.29;100395.64;1720214;83;21117;-39
2021/07/17 03:05:24;;;;;;;11.12;9.73;;;;;;;21.33;97.06;100396.75;1736307;81;20983;-39
2021/07/17 03:07:50;;;;;;;19.30;9.85;;;;;;;21.35;96.77;100391.77;1728198;81;21030;-39
2021/07/17 03:10:16;;;;;;;15.83;10.63;;;;;;;21.37;96.13;100395.63;1736018;81;21156;-39
2021/07/17 03:12:43;;;;;;;17.10;10.85;;;;;;;21.41;95.79;100395.80;1730699;82;20928;-39
2021/07/17 03:15:12;;;;;;;15.68;10.60;;;;;;;21.45;95.54;100397.28;1721794;81;20987;-39
2021/07/17 03:17:38;;;;;;;11.97;9.93;;;;;;;21.50;95.17;100393.05;1720569;81;20988;-39
2021/07/17 03:20:07;;;;;;;15.85;10.23;;;;;;;21.55;94.97;100390.95;1726121;81;20924;-39
2021/07/17 03:22:34;;;;;;;14.33;10.10;;;;;;;21.61;94.59;100397.12;1670353;83;21079;-40
2021/07/17 03:25:01;;;;;;;15.15;9.85;;;;;;;21.67;94.29;100394.10;1682108;84;20975;-40
2021/07/17 03:27:29;;;;;;;11.12;9.90;;;;;;;21.72;93.88;100384.59;1706875;82;22503;-40
2021/07/17 03:29:55;;;;;;;12.53;10.60;;;;;;;21.76;93.19;100392.66;1708335;82;21526;-40
2021/07/17 03:32:26;;;;;;;14.33;10.75;;;;;;;21.79;92.78;100387.66;1704884;83;21010;-40
2021/07/17 03:34:53;;;;;;;15.50;11.03;;;;;;;21.84;92.46;100382.92;1713445;82;23068;-40
2021/07/17 03:37:20;;;;;;;22.95;10.68;;;;;;;21.91;92.08;100387.31;1715145;82;21031;-40
2021/07/17 03:39:47;;;;;;;19.07;11.05;;;;;;;21.99;91.69;100385.48;1715826;82;20971;-39
2021/07/17 03:42:13;;;;;;;21.35;10.32;;;;;;;22.03;91.36;100383.83;1722085;82;21934;-39
2021/07/17 03:44:39;;;;;;;16.80;9.85;;;;;;;22.10;90.95;100385.13;1719343;82;21083;-40
2021/07/17 03:47:06;;;;;;;14.13;9.95;;;;;;;22.16;90.60;100385.64;1691827;82;21119;-40
2021/07/17 03:49:32;;;;;;;17.30;10.20;;;;;;;22.24;90.38;100382.86;1717637;82;21000;-39
2021/07/17 03:51:59;;;;;;;17.02;9.68;;;;;;;22.35;89.94;100370.71;1680437;84;21135;-40
2021/07/17 03:54:26;;;;;;;12.93;9.35;;;;;;;22.53;89.81;100377.38;1727251;82;21060;-40
2021/07/17 03:56:53;;;;;;;15.45;9.33;;;;;;;22.73;89.28;100372.46;1741029;82;21505;-39
2021/07/17 03:59:21;;;;;;;15.65;9.13;;;;;;;22.99;88.40;100367.60;1715927;82;21537;-40
2021/07/17 04:01:48;;;;;;;13.90;9.58;;;;;;;23.27;86.83;100372.22;1716038;82;20967;-38
2021/07/17 04:04:14;;;;;;;14.93;10.23;;;;;;;23.55;85.23;100377.62;1722525;82;21063;-39
2021/07/17 04:06:41;;;;;;;11.70;8.90;;;;;;;23.87;83.36;100373.48;1715115;82;21533;-39
2021/07/17 04:09:08;;;;;;;16.00;8.55;;;;;;;24.13;81.84;100376.00;1700216;83;21084;-40
2021/07/17 04:11:34;;;;;;;13.28;8.65;;;;;;;24.41;81.07;100375.17;1712779;82;21835;-39
2021/07/17 04:14:00;;;;;;;11.43;9.10;;;;;;;24.67;79.57;100377.06;1688716;83;22132;-40
2021/07/17 04:16:27;;;;;;;14.55;9.65;;;;;;;24.81;78.11;100380.82;1719515;82;20933;-39
2021/07/17 04:18:54;;;;;;;11.38;8.73;;;;;;;25.01;77.00;100378.84;1736387;82;21032;-39
2021/07/17 04:21:20;;;;;;;15.30;9.10;;;;;;;25.24;76.39;100377.81;1725159;82;20953;-39
2021/07/17 04:23:46;;;;;;;16.52;9.98;;;;;;;25.53;75.30;100385.19;1719833;82;21019;-40
2021/07/17 04:26:13;;;;;;;10.48;9.38;;;;;;;25.73;73.44;100381.37;1635142;86;21022;-40
2021/07/17 04:28:40;;;;;;;12.85;8.40;;;;;;;25.87;72.76;100381.52;1715453;81;21039;-39
2021/07/17 04:31:06;;;;;;;14.00;8.50;;;;;;;25.96;72.07;100381.23;1696538;83;20963;-39
2021/07/17 04:33:33;;;;;;;14.35;8.70;;;;;;;26.08;71.20;100376.70;1701847;83;21027;-40
2021/07/17 04:36:00;;;;;;;9.18;8.08;;;;;;;26.23;71.37;100378.05;1739373;81;21124;-40
2021/07/17 04:38:26;;;;;;;14.87;8.23;;;;;;;26.41;70.40;100368.65;1725187;81;21055;-39
2021/07/17 04:40:53;;;;;;;12.85;7.87;;;;;;;26.63;70.12;100372.91;1683861;81;20991;-41
2021/07/17 04:43:20;;;;;;;11.57;8.10;;;;;;;26.84;69.31;100371.48;1700926;82;21075;-39
2021/07/17 04:45:47;;;;;;;9.20;7.53;;;;;;;27.04;68.58;100367.56;1713399;83;20987;-39
2021/07/17 04:48:13;;;;;;;11.57;7.55;;;;;;;27.22;67.23;100372.55;1739398;81;21131;-39
2021/07/17 04:50:40;;;;;;;10.50;7.80;;;;;;;27.25;66.92;100365.63;1745620;81;20932;-39
2021/07/17 04:53:06;;;;;;;8.10;7.33;;;;;;;27.30;66.99;100367.02;1727109;81;20944;-39
2021/07/17 04:55:33;;;;;;;9.30;7.62;;;;;;;27.35;66.90;100361.64;1705514;83;20928;-40
2021/07/17 04:57:59;;;;;;;13.03;8.85;;;;;;;27.31;66.90;100371.35;1736809;81;20979;-40
2021/07/17 05:00:26;;;;;;;11.05;7.87;;;;;;;27.42;66.33;100361.08;1732675;81;21139;-38
2021/07/17 05:02:55;;;;;;;12.58;7.80;;;;;;;27.61;66.46;100354.92;1735254;81;20982;-39
2021/07/17 05:05:22;;;;;;;10.88;8.43;;;;;;;27.68;65.99;100355.55;1732255;81;21725;-39
2021/07/17 05:07:50;;;;;;;11.15;7.62;;;;;;;27.85;65.12;100354.95;1732673;81;20939;-39
2021/07/17 05:10:20;;;;;;;7.72;6.72;;;;;;;28.02;65.09;100357.34;1750600;81;20948;-39
2021/07/17 05:12:48;;;;;;;12.60;7.75;;;;;;;28.21;64.56;100355.98;1727055;81;22224;-39
2021/07/17 05:15:15;;;;;;;10.50;7.28;;;;;;;28.34;64.19;100353.50;1720615;81;21489;-39
2021/07/17 05:17:41;;;;;;;8.68;7.33;;;;;;;28.63;64.91;100358.66;1732630;81;21557;-39
2021/07/17 05:20:10;;;;;;;10.40;7.90;;;;;;;28.98;62.75;100356.23;1738181;81;21484;-39
2021/07/17 05:22:36;;;;;;;13.62;7.37;;;;;;;29.33;60.97;100357.71;1665544;83;21030;-39
2021/07/17 05:25:04;;;;;;;12.98;8.40;;;;;;;29.55;60.02;100363.06;1744254;81;21143;-39
2021/07/17 05:27:31;;;;;;;7.65;6.92;;;;;;;29.69;59.70;100359.03;1732261;82;21506;-39
2021/07/17 05:29:58;;;;;;;13.95;8.73;;;;;;;29.81;58.11;100360.43;1713177;83;21055;-39
2021/07/17 05:32:24;;;;;;;14.13;8.18;;;;;;;29.54;58.15;100368.91;1732050;82;21030;-39
2021/07/17 05:34:51;;;;;;;10.88;7.12;;;;;;;29.26;57.75;100364.14;1727728;82;20968;-39
2021/07/17 05:37:18;;;;;;;8.55;7.33;;;;;;;29.21;58.94;100371.77;1724746;82;21069;-39
2021/07/17 05:39:44;;;;;;;15.50;7.97;;;;;;;29.36;58.36;100370.24;1685716;83;20933;-39
2021/07/17 05:42:11;;;;;;;9.58;6.50;;;;;;;29.58;57.92;100377.93;1733343;82;21177;-40
2021/07/17 05:44:38;;;;;;;8.25;6.65;;;;;;;29.75;57.75;100369.06;1697841;83;21560;-39
2021/07/17 05:47:04;;;;;;;11.05;6.67;;;;;;;29.82;56.77;100375.44;1722196;82;21052;-40
2021/07/17 05:49:32;;;;;;;9.38;6.40;;;;;;;29.61;57.53;100378.47;1719391;82;21152;-39
2021/07/17 05:51:58;;;;;;;13.10;7.00;;;;;;;29.71;58.34;100376.19;1718362;82;21034;-40
2021/07/17 05:54:24;;;;;;;11.78;6.58;;;;;;;29.95;57.97;100373.69;1693134;83;21100;-40
2021/07/17 05:56:51;;;;;;;7.10;6.50;;;;;;;30.16;56.93;100375.17;1729736;82;21511;-40
2021/07/17 05:59:18;;;;;;;9.43;6.33;;;;;;;30.17;57.39;100367.50;1680381;83;20998;-41
2021/07/17 06:01:46;;;;;;;7.37;6.37;;;;;;;30.17;57.45;100366.66;1713303;82;22020;-40
2021/07/17 06:04:12;;;;;;;8.60;6.72;;;;;;;30.28;56.31;100369.55;1719493;82;21536;-40
2021/07/17 06:06:41;;;;;;;9.80;5.90;;;;;;;30.37;56.57;100364.60;1721310;82;20944;-40
2021/07/17 06:09:08;;;;;;;7.05;6.25;;;;;;;30.56;55.55;100368.83;1716173;82;21666;-40
2021/07/17 06:11:35;;;;;;;10.20;6.15;;;;;;;30.59;55.53;100369.02;1717574;82;21907;-40
2021/07/17 06:14:01;;;;;;;8.48;5.72;;;;;;;30.50;56.07;100368.16;1722748;82;21075;-40
2021/07/17 06:16:27;;;;;;;14.10;7.10;;;;;;;30.31;56.49;100366.06;1683804;83;21660;-40
2021/07/17 06:18:54;;;;;;;7.05;6.30;;;;;;;30.15;56.41;100369.98;1719077;82;21039;-40
2021/07/17 06:21:21;;;;;;;16.45;6.28;;;;;;;30.00;57.66;100360.37;1717359;82;21030;-40
2021/07/17 06:23:48;;;;;;;7.87;6.40;;;;;;;30.10;58.07;100359.29;1697284;82;20997;-40
2021/07/17 06:26:15;;;;;;;10.45;6.65;;;;;;;30.10;56.71;100366.48;1720094;82;21124;-39
2021/07/17 06:28:41;;;;;;;20.27;9.40;;;;;;;30.02;56.97;100361.92;1727917;81;20979;-40
2021/07/17 06:31:08;;;;;;;7.33;6.30;;;;;;;30.08;58.01;100366.63;1728236;81;21019;-39
2021/07/17 06:33:34;;;;;;;11.97;6.78;;;;;;;30.28;58.10;100365.54;1726904;81;20904;-39
2021/07/17 06:36:02;;;;;;;10.68;7.20;;;;;;;30.50;57.95;100360.97;1738942;81;20972;-39
2021/07/17 06:38:29;;;;;;;9.38;6.25;;;;;;;30.77;57.95;100359.06;1712470;82;21109;-39
2021/07/17 06:40:55;;;;;;;7.33;6.42;;;;;;;30.96;56.31;100359.78;1722097;81;20991;-40
2021/07/17 06:43:22;;;;;;;12.68;6.33;;;;;;;30.99;54.27;100362.63;1736199;81;21002;-40
2021/07/17 06:45:48;;;;;;;6.50;5.90;;;;;;;30.85;55.78;100360.92;1693959;83;21034;-40
2021/07/17 06:48:15;;;;;;;11.35;6.37;;;;;;;30.93;55.23;100356.92;1696156;82;20980;-40
2021/07/17 06:50:43;;;;;;;7.65;6.00;;;;;;;31.00;55.10;100358.96;1734293;80;21028;-39
2021/07/17 06:53:09;;;;;;;18.92;6.80;;;;;;;31.03;54.55;100350.61;1741218;81;21541;-40
2021/07/17 06:55:36;;;;;;;7.53;6.05;;;;;;;30.92;53.87;100358.44;1751153;82;21533;-40
2021/07/17 06:58:02;;;;;;;6.17;5.53;;;;;;;30.99;53.72;100354.62;1740789;81;21505;-40
2021/07/17 07:00:30;;;;;;;7.80;6.50;;;;;;;30.91;53.45;100355.44;1692980;81;21035;-40
2021/07/17 07:02:56;;;;;;;8.35;5.87;;;;;;;30.77;53.88;100356.91;1721240;81;21222;-40
2021/07/17 07:05:22;;;;;;;9.13;6.53;;;;;;;30.52;53.98;100348.80;1725641;81;20928;-40
2021/07/17 07:07:49;;;;;;;12.73;6.95;;;;;;;30.27;54.45;100354.05;1750914;82;20928;-40
2021/07/17 07:10:15;;;;;;;12.63;7.25;;;;;;;30.34;54.97;100347.06;1749907;81;20940;-40
2021/07/17 07:12:42;;;;;;;16.75;7.58;;;;;;;30.36;55.51;100353.07;1715775;82;20952;-40
2021/07/17 07:15:09;;;;;;;10.93;6.80;;;;;;;30.58;55.56;100349.48;1746904;81;21093;-40
2021/07/17 07:17:38;;;;;;;8.45;6.45;;;;;;;30.77;55.36;100355.06;1744160;81;20972;-40
2021/07/17 07:20:09;;;;;;;12.58;6.08;;;;;;;31.03;56.06;100352.77;1722515;82;20959;-40
2021/07/17 07:22:37;;;;;;;7.08;5.72;;;;;;;31.22;53.21;100351.67;1739998;81;21007;-40
2021/07/17 07:25:06;;;;;;;6.60;6.00;;;;;;;31.28;54.24;100351.99;1682427;83;21001;-40
2021/07/17 07:27:33;;;;;;;8.30;5.80;;;;;;;31.36;52.52;100348.83;1658164;85;21095;-39
2021/07/17 07:29:59;;;;;;;6.33;5.72;;;;;;;31.52;51.69;100350.65;1684167;83;21039;-40
2021/07/17 07:32:26;;;;;;;7.75;5.92;;;;;;;31.38;52.10;100352.16;1658613;85;21087;-40
2021/07/17 07:34:53;;;;;;;7.22;5.40;;;;;;;31.36;51.51;100351.98;1698097;83;21014;-40
2021/07/17 07:37:19;;;;;;;10.03;6.03;;;;;;;31.53;51.98;100354.98;1696826;83;21457;-40
2021/07/17 07:39:46;;;;;;;7.65;6.00;;;;;;;31.80;50.23;100353.46;1684582;85;21136;-40
2021/07/17 07:42:12;;;;;;;9.58;6.60;;;;;;;32.00;48.96;100348.58;1691406;83;21002;-39
2021/07/17 07:44:39;;;;;;;5.67;5.22;;;;;;;32.18;48.92;100344.81;1690499;83;21035;-40
2021/07/17 07:47:05;;;;;;;8.60;5.80;;;;;;;32.36;48.56;100340.09;1699160;83;21018;-39
2021/07/17 07:49:32;;;;;;;9.20;5.80;;;;;;;32.48;47.43;100333.03;1709895;83;21006;-38
2021/07/17 07:51:59;;;;;;;7.90;6.45;;;;;;;32.40;48.53;100340.59;1684568;83;21436;-38
2021/07/17 07:54:26;;;;;;;6.78;5.85;;;;;;;32.32;49.35;100336.56;1706598;83;20931;-39
2021/07/17 07:56:52;;;;;;;6.30;5.67;;;;;;;32.36;48.03;100341.44;1707954;83;20959;-39
2021/07/17 07:59:19;;;;;;;10.72;6.33;;;;;;;32.38;48.43;100339.94;1674472;83;21529;-39
2021/07/17 08:01:45;;;;;;;6.03;5.60;;;;;;;32.50;48.79;100343.05;1687824;83;22639;-39
2021/07/17 08:04:12;;;;;;;9.10;5.72;;;;;;;32.70;48.36;100340.76;1669598;83;21103;-39
2021/07/17 08:06:38;;;;;;;10.85;6.20;;;;;;;32.96;47.94;100341.77;1662234;85;20999;-40
2021/07/17 08:09:05;;;;;;;10.88;5.58;;;;;;;33.25;46.54;100339.38;1655990;86;21093;-39
2021/07/17 08:11:31;;;;;;;8.13;5.92;;;;;;;33.43;45.70;100344.96;1701677;83;20995;-39
2021/07/17 08:13:58;;;;;;;8.68;5.80;;;;;;;33.45;44.64;100331.68;1703604;83;21010;-40
2021/07/17 08:16:24;;;;;;;10.38;5.67;;;;;;;33.44;44.03;100343.95;1699731;83;21365;-39
2021/07/17 08:18:50;;;;;;;13.70;6.22;;;;;;;33.41;44.35;100338.92;1685919;83;21035;-39
2021/07/17 08:21:17;;;;;;;6.33;5.80;;;;;;;33.57;44.25;100332.59;1654023;85;20963;-40
2021/07/17 08:23:45;;;;;;;11.22;5.28;;;;;;;33.80;42.57;100332.02;1686138;83;21054;-40
2021/07/17 08:26:13;;;;;;;10.35;5.60;;;;;;;33.72;42.29;100327.23;1699767;82;20983;-39
2021/07/17 08:28:39;;;;;;;8.98;5.65;;;;;;;33.69;44.62;100331.11;1713285;83;21151;-40
2021/07/17 08:31:06;;;;;;;6.12;5.33;;;;;;;33.88;45.10;100324.39;1713487;82;20999;-39
2021/07/17 08:33:33;;;;;;;5.62;5.17;;;;;;;34.08;42.36;100323.33;1713305;82;20991;-39
2021/07/17 08:36:00;;;;;;;5.20;4.83;;;;;;;34.16;43.22;100324.24;1713578;82;20987;-39
2021/07/17 08:38:26;;;;;;;5.30;4.90;;;;;;;34.42;43.34;100320.20;1713572;82;21019;-41
2021/07/17 08:40:55;;;;;;;5.22;4.72;;;;;;;34.47;40.82;100318.63;1713187;83;21111;-40
2021/07/17 08:43:23;;;;;;;8.23;5.50;;;;;;;34.49;41.80;100323.85;1692023;83;21012;-41
2021/07/17 08:45:49;;;;;;;12.80;5.72;;;;;;;34.60;41.60;100323.34;1712836;82;21478;-40
2021/07/17 08:48:18;;;;;;;6.97;5.15;;;;;;;34.68;40.54;100312.47;1713109;82;21544;-40
2021/07/17 08:50:45;;;;;;;8.65;5.40;;;;;;;34.85;40.98;100312.22;1713772;82;21121;-40
2021/07/17 08:53:11;;;;;;;9.33;5.08;;;;;;;35.09;41.30;100323.11;1713511;82;21158;-39
2021/07/17 08:55:38;;;;;;;10.08;6.15;;;;;;;35.05;41.22;100320.49;1713396;82;20948;-40
2021/07/17 08:58:04;;;;;;;9.08;5.55;;;;;;;35.03;40.02;100314.48;1711783;82;21130;-40
2021/07/17 09:00:35;;;;;;;8.53;5.92;;;;;;;35.16;40.97;100316.45;1713270;82;20972;-40
2021/07/17 09:03:07;;;;;;;9.15;5.37;;;;;;;35.07;41.62;100320.31;1713643;82;20983;-40
2021/07/17 09:05:36;;;;;;;13.43;9.63;;;;;;;35.07;39.73;100312.25;1712924;82;21154;-41
2021/07/17 09:08:04;;;;;;;26.65;10.28;;;;;;;35.02;39.70;100307.97;1710447;83;21550;-41
2021/07/17 09:10:43;;;;;;;10.80;6.42;;;;;;;35.07;40.29;100317.09;1678700;85;21007;-40
2021/07/17 09:13:28;;;;;;;7.87;6.15;;;;;;;35.23;40.34;100308.44;1711530;82;21043;-40
2021/07/17 09:16:06;;;;;;;7.33;5.35;;;;;;;35.48;39.52;100308.00;1713318;82;21542;-40
2021/07/17 09:18:46;;;;;;;6.92;5.15;;;;;;;35.63;37.43;100308.76;1698437;82;21061;-40
2021/07/17 09:21:29;;;;;;;6.03;5.05;;;;;;;35.43;39.62;100309.92;1692560;83;21023;-40
2021/07/17 09:24:05;;;;;;;6.35;5.62;;;;;;;35.43;40.71;100315.30;1720688;82;20989;-40
2021/07/17 09:26:34;;;;;;;8.88;5.50;;;;;;;35.34;39.73;100313.80;1733976;82;21000;-40
2021/07/17 09:29:10;;;;;;;6.40;5.00;;;;;;;35.03;41.05;100315.01;1707789;82;21040;-40
2021/07/17 09:31:54;;;;;;;9.10;5.22;;;;;;;34.88;42.05;100315.05;1709090;82;21159;-40
2021/07/17 09:34:23;;;;;;;8.78;5.25;;;;;;;35.04;38.71;100312.64;1715492;82;20987;-41
2021/07/17 09:37:12;;;;;;;5.42;5.05;;;;;;;35.26;37.26;100309.92;1710940;83;21039;-40
2021/07/17 09:39:47;;;;;;;6.28;4.80;;;;;;;35.37;38.04;100306.68;1690727;83;20980;-40
2021/07/17 09:42:19;;;;;;;7.30;4.90;;;;;;;35.57;36.43;100301.45;1710516;83;21478;-40
2021/07/17 09:44:51;;;;;;;7.25;6.10;;;;;;;35.78;36.85;100304.59;1718716;82;21110;-40
2021/07/17 09:47:23;;;;;;;6.70;4.78;;;;;;;35.92;36.57;100293.38;1708178;82;20960;-40
2021/07/17 09:49:50;;;;;;;8.60;5.70;;;;;;;35.93;36.98;100304.46;1707608;82;20968;-41
2021/07/17 09:52:23;;;;;;;6.53;5.20;;;;;;;35.93;36.54;100292.84;1711664;83;20945;-40
2021/07/17 09:55:06;;;;;;;11.22;5.50;;;;;;;35.96;36.18;100297.83;1711036;83;21545;-40
2021/07/17 09:57:34;;;;;;;8.73;4.95;;;;;;;36.05;36.64;100291.29;1706725;83;21174;-39
2021/07/17 10:00:13;;;;;;;6.33;4.87;;;;;;;36.14;34.88;100284.37;1710556;83;21023;-41
2021/07/17 10:02:40;;;;;;;5.72;5.10;;;;;;;36.16;34.51;100287.19;1706392;83;20969;-40
2021/07/17 10:05:15;;;;;;;14.87;5.87;;;;;;;36.11;35.32;100289.63;1711027;83;21007;-39
2021/07/17 10:07:43;;;;;;;5.30;4.80;;;;;;;36.07;37.17;100287.87;1711359;83;21557;-40
2021/07/17 10:10:12;;;;;;;7.78;4.90;;;;;;;36.04;35.75;100283.41;1711479;83;21059;-39
2021/07/17 10:12:40;;;;;;;4.65;4.37;;;;;;;35.93;34.11;100282.92;1687498;83;20969;-41
2021/07/17 10:15:09;;;;;;;7.58;5.50;;;;;;;35.82;34.81;100284.83;1708875;82;21581;-40
2021/07/17 10:17:39;;;;;;;9.23;6.03;;;;;;;35.78;36.78;100288.45;1708942;83;20966;-40
2021/07/17 10:20:09;;;;;;;5.90;4.90;;;;;;;35.90;37.66;100281.14;1728171;82;21027;-40
2021/07/17 10:22:36;;;;;;;6.85;5.05;;;;;;;36.00;35.55;100281.61;1708191;82;21012;-40
2021/07/17 10:25:06;;;;;;;5.25;4.65;;;;;;;36.08;36.09;100277.42;1707649;82;21067;-39
2021/07/17 10:27:34;;;;;;;6.40;5.17;;;;;;;36.21;35.48;100277.14;1675283;83;21075;-39
2021/07/17 10:30:05;;;;;;;9.03;5.83;;;;;;;36.32;36.67;100278.41;1687576;83;21557;-39
2021/07/17 10:32:31;;;;;;;6.67;5.25;;;;;;;36.22;36.19;100272.91;1671864;83;21229;-39
2021/07/17 10:34:58;;;;;;;6.45;5.40;;;;;;;35.67;37.51;100276.39;1712312;83;21148;-40
2021/07/17 10:37:28;;;;;;;6.37;4.83;;;;;;;35.32;37.41;100270.95;1716074;83;21010;-40
2021/07/17 10:40:05;;;;;;;5.03;4.62;;;;;;;35.03;38.43;100266.62;1700564;83;21018;-42
2021/07/17 10:42:31;;;;;;;10.72;4.97;;;;;;;35.11;40.47;100261.09;1697164;83;20967;-39
2021/07/17 10:44:58;;;;;;;5.85;4.90;;;;;;;35.68;39.27;100257.02;1712933;83;20958;-40
2021/07/17 10:47:27;;;;;;;7.60;5.00;;;;;;;36.09;38.12;100256.70;1648730;84;21061;-40
2021/07/17 10:49:54;;;;;;;5.60;5.10;;;;;;;36.18;36.71;100264.08;1685879;83;21118;-39
2021/07/17 10:52:45;;;;;;;4.83;4.42;;;;;;;36.03;36.33;100266.44;1694226;83;20979;-39
2021/07/17 10:55:36;;;;;;;11.80;5.70;;;;;;;35.96;37.00;100258.80;1688424;83;21042;-39
2021/07/17 10:58:18;;;;;;;6.40;5.05;;;;;;;35.98;36.30;100262.64;1666801;83;21038;-39
2021/07/17 11:00:51;;;;;;;7.67;5.65;;;;;;;35.76;36.11;100260.91;1660317;85;21386;-40
2021/07/17 11:03:30;;;;;;;9.70;5.20;;;;;;;35.14;37.77;100263.38;1689071;83;20923;-42
2021/07/17 11:05:57;;;;;;;7.50;5.78;;;;;;;34.44;39.51;100258.58;1683328;83;20897;-40
2021/07/17 11:08:35;;;;;;;9.40;5.50;;;;;;;34.33;40.91;100255.88;1688847;83;20990;-41
2021/07/17 11:11:30;;;;;;;9.70;5.05;;;;;;;34.57;39.96;100249.86;1709856;83;21509;-40
2021/07/17 11:14:09;;;;;;;9.28;5.47;;;;;;;34.91;39.04;100248.28;1692974;83;21532;-40
2021/07/17 11:16:48;;;;;;;5.53;5.03;;;;;;;35.30;39.49;100238.05;1691772;83;21011;-41
2021/07/17 11:19:26;;;;;;;6.08;5.47;;;;;;;35.53;36.29;100236.47;1706220;83;20990;-40
2021/07/17 11:21:56;;;;;;;19.05;6.30;;;;;;;35.72;37.33;100236.75;1678463;85;21012;-39